createdAt,value
2019-02-05T00:01:46.209Z,101649.95
2019-02-05T00:04:15.665Z,101660.84
2019-02-05T00:06:44.914Z,101655.54
2019-02-05T00:09:14.453Z,101664.95
2019-02-05T00:11:43.747Z,101670.38
2019-02-05T00:14:13.250Z,101663.69
2019-02-05T00:16:42.976Z,101667.30
2019-02-05T00:19:12.280Z,101676.30
2019-02-05T00:21:41.764Z,101673.43
2019-02-05T00:24:11.100Z,101674.54
2019-02-05T00:26:40.730Z,101684.23
2019-02-05T00:29:09.914Z,101687.89
2019-02-05T00:31:39.596Z,101693.11
2019-02-05T00:34:09.024Z,101694.44
2019-02-05T00:36:38.291Z,101701.53
2019-02-05T00:39:09.288Z,101688.30
2019-02-05T00:41:38.551Z,101695.13
2019-02-05T00:44:07.825Z,101701.12
2019-02-05T00:46:37.145Z,101697.31
2019-02-05T00:49:06.425Z,101698.83
2019-02-05T00:51:35.843Z,101689.20
2019-02-05T00:54:05.648Z,101700.38
2019-02-05T00:56:34.857Z,101693.92
2019-02-05T00:59:04.474Z,101697.51
2019-02-05T01:01:36.180Z,101701.08
2019-02-05T01:04:06.228Z,101705.45
2019-02-05T01:06:35.434Z,101707.25
2019-02-05T01:09:07.318Z,101719.64
2019-02-05T01:11:36.821Z,101719.64
2019-02-05T01:14:06.313Z,101718.15
2019-02-05T01:16:35.639Z,101714.28
2019-02-05T01:19:04.780Z,101704.08
2019-02-05T01:21:34.162Z,101699.00
2019-02-05T01:24:03.426Z,101698.72
2019-02-05T01:26:32.715Z,101702.47
2019-02-05T01:29:01.963Z,101698.29
2019-02-05T01:31:31.385Z,101699.83
2019-02-05T01:34:00.815Z,101695.23
2019-02-05T01:36:30.057Z,101696.34
2019-02-05T01:38:59.464Z,101696.34
2019-02-05T01:41:30.859Z,101690.50
2019-02-05T01:44:00.129Z,101698.65
2019-02-05T01:46:29.430Z,101697.59
2019-02-05T01:48:58.788Z,101706.38
2019-02-05T01:51:28.110Z,101700.06
2019-02-05T01:53:57.526Z,101706.17
2019-02-05T01:56:26.918Z,101708.02
2019-02-05T01:58:56.295Z,101707.50
2019-02-05T02:01:25.713Z,101713.84
2019-02-05T02:03:54.991Z,101719.52
2019-02-05T02:06:24.860Z,101716.66
2019-02-05T02:08:54.745Z,101715.70
2019-02-05T02:11:24.448Z,101707.40
2019-02-05T02:13:53.815Z,101706.08
2019-02-05T02:16:23.016Z,101707.23
2019-02-05T02:18:52.247Z,101703.27
2019-02-05T02:21:21.525Z,101702.84
2019-02-05T02:23:50.851Z,101703.16
2019-02-05T02:26:20.211Z,101712.16
2019-02-05T02:28:49.576Z,101701.84
2019-02-05T02:31:18.757Z,101695.81
2019-02-05T02:33:48.026Z,101694.34
2019-02-05T02:36:17.291Z,101700.25
2019-02-05T02:38:46.516Z,101704.29
2019-02-05T02:41:15.850Z,101700.78
2019-02-05T02:43:45.164Z,101708.36
2019-02-05T02:46:14.403Z,101707.03
2019-02-05T02:48:43.789Z,101721.44
2019-02-05T02:51:13.027Z,101725.63
2019-02-05T02:53:42.360Z,101719.73
2019-02-05T02:56:11.773Z,101725.25
2019-02-05T02:58:41.068Z,101719.80
2019-02-05T03:01:10.443Z,101725.79
2019-02-05T03:03:39.805Z,101720.98
2019-02-05T03:06:09.258Z,101721.13
2019-02-05T03:08:38.494Z,101715.83
2019-02-05T03:11:07.887Z,101713.77
2019-02-05T03:13:37.442Z,101714.25
2019-02-05T03:16:06.737Z,101721.19
2019-02-05T03:18:36.107Z,101721.77
2019-02-05T03:21:05.403Z,101716.95
2019-02-05T03:23:35.590Z,101720.17
2019-02-05T03:26:04.833Z,101722.52
2019-02-05T03:28:34.104Z,101728.87
2019-02-05T03:31:03.894Z,101731.52
2019-02-05T03:33:33.137Z,101731.39
2019-02-05T03:36:02.462Z,101728.97
2019-02-05T03:38:31.711Z,101735.28
2019-02-05T03:41:06.232Z,101735.28
2019-02-05T03:43:39.175Z,101740.88
2019-02-05T03:46:16.163Z,101736.27
2019-02-05T03:48:47.648Z,101743.65
2019-02-05T03:51:47.798Z,101735.64
2019-02-05T03:54:53.683Z,101736.81
2019-02-05T03:58:09.536Z,101739.55
2019-02-05T04:01:23.076Z,101734.85
2019-02-05T04:04:24.929Z,101730.28
2019-02-05T04:07:54.272Z,101730.78
2019-02-05T04:10:58.268Z,101731.26
2019-02-05T04:14:06.456Z,101730.71
2019-02-05T04:17:34.565Z,101723.67
2019-02-05T04:20:43.460Z,101725.12
2019-02-05T04:24:05.812Z,101723.80
2019-02-05T04:27:17.996Z,101733.21
2019-02-05T04:30:14.235Z,101735.43
2019-02-05T04:33:05.842Z,101729.98
2019-02-05T04:36:07.990Z,101729.56
2019-02-05T04:39:29.010Z,101736.13
2019-02-05T04:42:13.161Z,101748.60
2019-02-05T04:45:33.364Z,101744.28
2019-02-05T04:48:30.973Z,101744.64
2019-02-05T04:51:40.833Z,101738.56
2019-02-05T04:54:52.747Z,101743.16
2019-02-05T04:58:05.141Z,101739.25
2019-02-05T05:00:57.845Z,101751.27
2019-02-05T05:04:21.438Z,101755.14
2019-02-05T05:07:06.012Z,101751.33
2019-02-05T05:09:54.925Z,101753.95
2019-02-05T05:12:24.931Z,101753.21
2019-02-05T05:14:54.330Z,101752.01
2019-02-05T05:17:23.866Z,101760.53
2019-02-05T05:19:53.511Z,101765.72
2019-02-05T05:22:23.007Z,101756.19
2019-02-05T05:24:52.443Z,101757.45
2019-02-05T05:27:22.547Z,101758.31
2019-02-05T05:29:52.074Z,101753.69
2019-02-05T05:32:21.874Z,101748.25
2019-02-05T05:34:51.221Z,101751.91
2019-02-05T05:37:18.846Z,101757.03
2019-02-05T05:39:48.101Z,101754.02
2019-02-05T05:42:17.515Z,101755.92
2019-02-05T05:44:48.130Z,101762.39
2019-02-05T05:47:17.535Z,101766.10
2019-02-05T05:49:46.925Z,101774.72
2019-02-05T05:52:16.281Z,101783.36
2019-02-05T05:54:45.800Z,101780.45
2019-02-05T05:57:15.038Z,101788.39
2019-02-05T05:59:46.036Z,101780.81
2019-02-05T06:02:16.030Z,101774.52
2019-02-05T06:04:45.286Z,101778.91
2019-02-05T06:07:14.657Z,101787.86
2019-02-05T06:09:44.411Z,101786.11
2019-02-05T06:12:13.869Z,101788.12
2019-02-05T06:14:43.253Z,101791.62
2019-02-05T06:17:12.674Z,101792.09
2019-02-05T06:19:42.067Z,101797.45
2019-02-05T06:22:11.433Z,101788.61
2019-02-05T06:24:40.694Z,101794.05
2019-02-05T06:27:10.029Z,101800.69
2019-02-05T06:29:39.373Z,101802.37
2019-02-05T06:32:08.952Z,101796.98
2019-02-05T06:34:38.222Z,101803.34
2019-02-05T06:37:08.577Z,101798.61
2019-02-05T06:39:38.026Z,101804.44
2019-02-05T06:42:07.317Z,101803.40
2019-02-05T06:44:36.707Z,101807.16
2019-02-05T06:47:06.354Z,101804.17
2019-02-05T06:49:35.847Z,101810.70
2019-02-05T06:52:05.272Z,101813.34
2019-02-05T06:54:34.561Z,101819.17
2019-02-05T06:57:03.881Z,101819.80
2019-02-05T06:59:33.161Z,101821.80
2019-02-05T07:02:02.375Z,101818.94
2019-02-05T07:04:31.801Z,101821.39
2019-02-05T07:07:01.482Z,101822.61
2019-02-05T07:09:30.661Z,101826.53
2019-02-05T07:11:59.959Z,101833.41
2019-02-05T07:14:29.211Z,101830.91
2019-02-05T07:16:58.587Z,101835.69
2019-02-05T07:19:28.058Z,101840.83
2019-02-05T07:21:57.338Z,101841.80
2019-02-05T07:24:26.598Z,101840.62
2019-02-05T07:26:55.937Z,101837.61
2019-02-05T07:29:25.335Z,101841.05
2019-02-05T07:31:54.554Z,101846.87
2019-02-05T07:34:24.755Z,101847.81
2019-02-05T07:36:57.413Z,101847.19
2019-02-05T07:39:27.666Z,101851.81
2019-02-05T07:41:57.057Z,101856.67
2019-02-05T07:44:26.386Z,101855.61
2019-02-05T07:46:55.646Z,101859.95
2019-02-05T07:49:24.968Z,101863.56
2019-02-05T07:51:54.530Z,101863.73
2019-02-05T07:54:23.866Z,101862.04
2019-02-05T07:56:53.242Z,101874.59
2019-02-05T07:59:22.637Z,101879.19
2019-02-05T08:01:51.929Z,101884.48
2019-02-05T08:04:21.203Z,101889.16
2019-02-05T08:06:52.468Z,101895.84
2019-02-05T08:09:22.122Z,101893.73
2019-02-05T08:11:51.421Z,101892.23
2019-02-05T08:14:20.758Z,101903.63
2019-02-05T08:16:50.009Z,101912.00
2019-02-05T08:19:19.289Z,101912.27
2019-02-05T08:21:48.633Z,101914.08
2019-02-05T08:24:17.844Z,101920.55
2019-02-05T08:26:47.073Z,101913.81
2019-02-05T08:29:21.701Z,101918.27
2019-02-05T08:31:47.436Z,101910.81
2019-02-05T08:34:16.671Z,101909.86
2019-02-05T08:36:45.952Z,101919.39
2019-02-05T08:39:17.906Z,101914.24
2019-02-05T08:41:46.205Z,101915.42
2019-02-05T08:44:15.789Z,101919.71
2019-02-05T08:46:45.029Z,101916.98
2019-02-05T08:49:14.429Z,101924.45
2019-02-05T08:51:43.649Z,101927.25
2019-02-05T08:54:12.952Z,101929.89
2019-02-05T08:56:42.212Z,101933.19
2019-02-05T08:59:11.508Z,101935.95
2019-02-05T09:01:41.128Z,101939.34
2019-02-05T09:04:10.379Z,101941.36
2019-02-05T09:06:39.699Z,101951.53
2019-02-05T09:09:10.039Z,101937.64
2019-02-05T09:11:39.540Z,101937.11
2019-02-05T09:14:10.721Z,101942.95
2019-02-05T09:16:40.014Z,101948.05
2019-02-05T09:19:10.070Z,101952.13
2019-02-05T09:21:39.329Z,101951.13
2019-02-05T09:24:08.717Z,101961.03
2019-02-05T09:26:38.110Z,101961.95
2019-02-05T09:29:07.484Z,101974.45
2019-02-05T09:31:36.825Z,101970.95
2019-02-05T09:34:06.276Z,101969.22
2019-02-05T09:36:35.736Z,101977.12
2019-02-05T09:39:07.266Z,101983.75
2019-02-05T09:41:36.737Z,101979.92
2019-02-05T09:44:06.139Z,101986.14
2019-02-05T09:46:35.516Z,101990.75
2019-02-05T09:49:05.359Z,101988.89
2019-02-05T09:51:34.828Z,101995.52
2019-02-05T09:54:04.289Z,102001.57
2019-02-05T09:56:33.774Z,102005.55
2019-02-05T09:59:03.202Z,102002.91
2019-02-05T10:01:32.468Z,102004.86
2019-02-05T10:04:01.734Z,102008.36
2019-02-05T10:06:31.316Z,102009.42
2019-02-05T10:09:00.695Z,102002.94
2019-02-05T10:11:30.044Z,102016.95
2019-02-05T10:13:59.391Z,102013.97
2019-02-05T10:16:28.850Z,102024.65
2019-02-05T10:18:58.898Z,102023.47
2019-02-05T10:21:28.515Z,102022.14
2019-02-05T10:23:57.775Z,102025.98
2019-02-05T10:26:27.048Z,102024.80
2019-02-05T10:28:56.346Z,102026.03
2019-02-05T10:31:25.609Z,102026.76
2019-02-05T10:33:55.566Z,102031.49
2019-02-05T10:36:24.972Z,102032.67
2019-02-05T10:38:54.361Z,102022.89
2019-02-05T10:41:23.693Z,102032.18
2019-02-05T10:43:53.038Z,102028.98
2019-02-05T10:46:22.372Z,102026.05
2019-02-05T10:48:51.750Z,102025.88
2019-02-05T10:51:21.181Z,102026.88
2019-02-05T10:53:50.833Z,102024.23
2019-02-05T10:56:20.249Z,102024.37
2019-02-05T10:58:49.712Z,102028.04
2019-02-05T11:01:19.074Z,102026.38
2019-02-05T11:03:48.406Z,102026.66
2019-02-05T11:06:19.981Z,102025.77
2019-02-05T11:08:48.769Z,102029.53
2019-02-05T11:11:18.111Z,102033.87
2019-02-05T11:13:47.406Z,102031.41
2019-02-05T11:16:16.730Z,102025.88
2019-02-05T11:18:46.050Z,102030.23
2019-02-05T11:21:15.312Z,102025.61
2019-02-05T11:23:44.545Z,102016.67
2019-02-05T11:26:14.311Z,102012.16
2019-02-05T11:28:44.507Z,102008.38
2019-02-05T11:31:13.839Z,102006.80
2019-02-05T11:33:43.200Z,102006.14
2019-02-05T11:36:12.616Z,102009.64
2019-02-05T11:38:42.007Z,102009.07
2019-02-05T11:41:13.669Z,102007.82
2019-02-05T11:43:42.427Z,102009.23
2019-02-05T11:46:11.908Z,102013.92
2019-02-05T11:48:41.334Z,102010.88
2019-02-05T11:51:10.687Z,102007.72
2019-02-05T11:53:39.957Z,102015.58
2019-02-05T11:56:09.196Z,102009.15
2019-02-05T11:58:38.914Z,102016.02
2019-02-05T12:01:21.327Z,102013.29
2019-02-05T12:03:50.777Z,102022.53
2019-02-05T12:06:19.969Z,102018.75
2019-02-05T12:08:49.411Z,102014.44
2019-02-05T12:11:18.721Z,102016.52
2019-02-05T12:13:48.276Z,102013.38
2019-02-05T12:16:17.703Z,102012.83
2019-02-05T12:18:49.889Z,102011.19
2019-02-05T12:21:19.230Z,102014.84
2019-02-05T12:23:48.896Z,102004.78
2019-02-05T12:26:18.186Z,102006.19
2019-02-05T12:28:47.537Z,102005.06
2019-02-05T12:31:17.833Z,102008.34
2019-02-05T12:33:47.185Z,102004.13
2019-02-05T12:36:16.529Z,102002.30
2019-02-05T12:38:45.781Z,102003.32
2019-02-05T12:41:15.120Z,102008.31
2019-02-05T12:43:44.467Z,102006.83
2019-02-05T12:46:13.871Z,102015.05
2019-02-05T12:48:43.070Z,102008.40
2019-02-05T12:51:12.440Z,102009.56
2019-02-05T12:53:41.808Z,102014.07
2019-02-05T12:56:11.117Z,102009.28
2019-02-05T12:58:40.441Z,102011.41
2019-02-05T13:01:09.930Z,102016.37
2019-02-05T13:03:39.187Z,102016.13
2019-02-05T13:06:08.555Z,102015.41
2019-02-05T13:08:37.818Z,102021.00
2019-02-05T13:11:07.259Z,102017.13
2019-02-05T13:13:36.556Z,102016.61
2019-02-05T13:16:06.183Z,102019.67
2019-02-05T13:18:35.581Z,102015.73
2019-02-05T13:21:04.941Z,102017.94
2019-02-05T13:23:34.356Z,102021.92
2019-02-05T13:26:03.629Z,102015.44
2019-02-05T13:28:35.902Z,102013.65
2019-02-05T13:31:08.104Z,102020.77
2019-02-05T13:33:36.820Z,102020.34
2019-02-05T13:36:10.248Z,102014.47
2019-02-05T13:38:39.472Z,102013.91
2019-02-05T13:41:08.788Z,102020.52
2019-02-05T13:43:40.107Z,102023.73
2019-02-05T13:46:09.510Z,102020.23
2019-02-05T13:48:39.009Z,102023.25
2019-02-05T13:51:27.354Z,102028.36
2019-02-05T13:53:56.903Z,102025.06
2019-02-05T13:56:26.254Z,102028.53
2019-02-05T13:58:56.027Z,102024.75
2019-02-05T14:01:25.509Z,102025.15
2019-02-05T14:04:13.898Z,102022.09
2019-02-05T14:06:43.355Z,102024.55
2019-02-05T14:09:13.781Z,102021.40
2019-02-05T14:11:43.504Z,102024.75
2019-02-05T14:14:12.830Z,102027.28
2019-02-05T14:17:01.320Z,102022.25
2019-02-05T14:19:30.923Z,102026.31
2019-02-05T14:22:00.518Z,102027.64
2019-02-05T14:24:30.036Z,102028.20
2019-02-05T14:26:59.405Z,102030.02
2019-02-05T14:29:28.888Z,102031.02
2019-02-05T14:31:58.583Z,102027.52
2019-02-05T14:34:46.987Z,102026.83
2019-02-05T14:37:16.529Z,102026.75
2019-02-05T14:39:48.872Z,102022.23
2019-02-05T14:42:17.175Z,102027.13
2019-02-05T14:44:46.620Z,102024.39
2019-02-05T14:47:16.059Z,102027.69
2019-02-05T14:50:05.434Z,102020.69
2019-02-05T14:53:10.219Z,102020.84
2019-02-05T14:55:43.080Z,102024.19
2019-02-05T14:58:15.512Z,102023.78
2019-02-05T15:00:45.445Z,102022.38
2019-02-05T15:03:15.792Z,102023.27
2019-02-05T15:06:04.374Z,102021.25
2019-02-05T15:08:34.058Z,102022.86
2019-02-05T15:11:03.603Z,102021.41
2019-02-05T15:13:33.319Z,102019.31
2019-02-05T15:16:21.924Z,102027.13
2019-02-05T15:19:10.423Z,102030.14
2019-02-05T15:21:40.112Z,102025.75
2019-02-05T15:24:09.877Z,102027.23
2019-02-05T15:26:39.561Z,102025.69
2019-02-05T15:29:09.161Z,102028.62
2019-02-05T15:31:39.039Z,102024.28
2019-02-05T15:34:29.335Z,102026.61
2019-02-05T15:36:59.198Z,102026.80
2019-02-05T15:39:28.718Z,102032.75
2019-02-05T15:41:58.598Z,102033.66
2019-02-05T15:44:28.142Z,102029.95
2019-02-05T15:46:57.786Z,102030.16
2019-02-05T15:49:27.395Z,102026.59
2019-02-05T15:51:57.173Z,102022.91
2019-02-05T15:54:26.887Z,102020.74
2019-02-05T15:56:56.500Z,102023.24
2019-02-05T15:59:26.249Z,102022.55
2019-02-05T16:02:05.918Z,102023.88
2019-02-05T16:04:27.454Z,102021.02
2019-02-05T16:06:57.185Z,102019.63
2019-02-05T16:09:26.749Z,102019.97
2019-02-05T16:11:56.416Z,102018.22
2019-02-05T16:14:25.957Z,102021.45
2019-02-05T16:16:55.625Z,102017.05
2019-02-05T16:19:25.290Z,102017.89
2019-02-05T16:21:54.991Z,102021.98
2019-02-05T16:24:24.655Z,102020.81
2019-02-05T16:26:54.303Z,102025.91
2019-02-05T16:29:23.997Z,102034.72
2019-02-05T16:31:53.498Z,102031.43
2019-02-05T16:34:23.063Z,102027.78
2019-02-05T16:36:52.730Z,102027.45
2019-02-05T16:39:22.403Z,102025.12
2019-02-05T16:41:51.956Z,102023.47
2019-02-05T16:44:21.572Z,102024.44
2019-02-05T16:46:51.242Z,102032.06
2019-02-05T16:49:22.404Z,102031.91
2019-02-05T16:51:52.388Z,102023.47
2019-02-05T16:54:22.467Z,102021.78
2019-02-05T16:56:54.649Z,102023.41
2019-02-05T16:59:24.283Z,102022.28
2019-02-05T17:01:57.412Z,102027.92
2019-02-05T17:04:27.248Z,102028.92
2019-02-05T17:06:56.945Z,102031.49
2019-02-05T17:09:26.726Z,102029.27
2019-02-05T17:11:56.963Z,102025.34
2019-02-05T17:14:26.758Z,102034.63
2019-02-05T17:16:56.434Z,102028.36
2019-02-05T17:19:26.037Z,102029.69
2019-02-05T17:21:55.931Z,102033.66
2019-02-05T17:24:25.674Z,102038.48
2019-02-05T17:26:55.394Z,102036.65
2019-02-05T17:29:24.935Z,102035.20
2019-02-05T17:31:54.503Z,102028.20
2019-02-05T17:34:24.154Z,102028.08
2019-02-05T17:36:54.632Z,102028.69
2019-02-05T17:39:24.227Z,102026.39
2019-02-05T17:41:53.950Z,102029.53
2019-02-05T17:44:23.628Z,102029.53
2019-02-05T17:46:53.590Z,102026.87
2019-02-05T17:49:23.372Z,102029.69
2019-02-05T17:51:53.489Z,102016.27
2019-02-05T17:54:23.073Z,102022.14
2019-02-05T17:56:52.686Z,102022.84
2019-02-05T17:59:22.519Z,102021.45
2019-02-05T18:01:52.268Z,102009.14
2019-02-05T18:04:22.103Z,102007.13
2019-02-05T18:06:51.755Z,102010.63
2019-02-05T18:09:21.511Z,102002.09
2019-02-05T18:11:51.112Z,102010.11
2019-02-05T18:14:20.825Z,102009.30
2019-02-05T18:16:50.850Z,102011.23
2019-02-05T18:19:20.563Z,102009.09
2019-02-05T18:21:50.129Z,102003.78
2019-02-05T18:24:19.930Z,102006.55
2019-02-05T18:26:49.583Z,102004.75
2019-02-05T18:29:19.217Z,101990.52
2019-02-05T18:31:48.982Z,102003.14
2019-02-05T18:34:18.637Z,102010.47
2019-02-05T18:36:48.348Z,102004.80
2019-02-05T18:39:18.132Z,102007.45
2019-02-05T18:41:47.773Z,102006.77
2019-02-05T18:44:17.351Z,102003.14
2019-02-05T18:46:46.950Z,101998.95
2019-02-05T18:49:17.161Z,101996.15
2019-02-05T18:51:47.096Z,101995.82
2019-02-05T18:54:16.729Z,101994.49
2019-02-05T18:56:46.460Z,101985.53
2019-02-05T18:59:16.103Z,101990.00
2019-02-05T19:01:45.873Z,101989.24
2019-02-05T19:04:16.064Z,101980.91
2019-02-05T19:06:45.742Z,101982.55
2019-02-05T19:09:15.642Z,101978.20
2019-02-05T19:11:45.500Z,101977.36
2019-02-05T19:14:15.229Z,101976.19
2019-02-05T19:16:44.936Z,101979.81
2019-02-05T19:19:15.518Z,101978.97
2019-02-05T19:21:45.317Z,101974.23
2019-02-05T19:24:31.108Z,101982.46
2019-02-05T19:27:00.980Z,101988.77
2019-02-05T19:29:31.029Z,101987.13
2019-02-05T19:32:00.807Z,101986.80
2019-02-05T19:34:30.392Z,101986.11
2019-02-05T19:37:00.144Z,101992.23
2019-02-05T19:39:29.775Z,101997.06
2019-02-05T19:41:59.647Z,101989.79
2019-02-05T19:44:29.627Z,101982.67
2019-02-05T19:47:02.879Z,101990.30
2019-02-05T19:49:44.283Z,101994.82
2019-02-05T19:52:14.056Z,101993.98
2019-02-05T19:54:43.811Z,101997.27
2019-02-05T19:57:13.793Z,102000.41
2019-02-05T19:59:43.810Z,102004.27
2019-02-05T20:02:13.617Z,101997.95
2019-02-05T20:04:43.503Z,101997.48
2019-02-05T20:07:14.260Z,101998.89
2019-02-05T20:09:43.968Z,101997.26
2019-02-05T20:12:15.003Z,101988.81
2019-02-05T20:14:45.057Z,101984.55
2019-02-05T20:17:14.857Z,101980.22
2019-02-05T20:19:44.539Z,101976.80
2019-02-05T20:22:14.389Z,101979.88
2019-02-05T20:24:45.071Z,101981.41
2019-02-05T20:27:14.872Z,101979.72
2019-02-05T20:29:46.247Z,101971.91
2019-02-05T20:32:16.420Z,101961.65
2019-02-05T20:34:46.088Z,101965.12
2019-02-05T20:37:15.805Z,101971.27
2019-02-05T20:39:45.471Z,101973.80
2019-02-05T20:42:15.223Z,101974.08
2019-02-05T20:44:45.222Z,101970.30
2019-02-05T20:47:15.129Z,101978.27
2019-02-05T20:49:44.768Z,101976.45
2019-02-05T20:52:14.575Z,101975.82
2019-02-05T20:54:44.571Z,101980.97
2019-02-05T20:57:14.327Z,101978.40
2019-02-05T20:59:43.887Z,101981.75
2019-02-05T21:02:13.941Z,101980.22
2019-02-05T21:04:48.556Z,101988.71
2019-02-05T21:07:15.068Z,101980.91
2019-02-05T21:09:44.907Z,101985.45
2019-02-05T21:12:14.799Z,101986.98
2019-02-05T21:14:44.514Z,101987.39
2019-02-05T21:17:14.492Z,101990.68
2019-02-05T21:19:44.172Z,101984.41
2019-02-05T21:22:13.893Z,101981.59
2019-02-05T21:24:43.722Z,101975.75
2019-02-05T21:27:13.565Z,101982.17
2019-02-05T21:29:43.233Z,101978.59
2019-02-05T21:32:13.191Z,101983.30
2019-02-05T21:34:42.825Z,101976.45
2019-02-05T21:37:12.466Z,101983.22
2019-02-05T21:39:42.185Z,101981.95
2019-02-05T21:42:11.788Z,101981.06
2019-02-05T21:44:42.228Z,101983.98
2019-02-05T21:47:12.243Z,101983.23
2019-02-05T21:49:41.870Z,101976.80
2019-02-05T21:52:11.408Z,101962.63
2019-02-05T21:54:41.016Z,101953.26
2019-02-05T21:57:10.760Z,101953.20
2019-02-05T21:59:40.293Z,101961.44
2019-02-05T22:02:11.002Z,101971.58
2019-02-05T22:04:40.612Z,101990.20
2019-02-05T22:07:10.250Z,101991.27
2019-02-05T22:09:39.978Z,101986.64
2019-02-05T22:12:09.487Z,101989.38
2019-02-05T22:14:38.830Z,101980.14
2019-02-05T22:17:08.121Z,101972.75
2019-02-05T22:19:37.389Z,101979.72
2019-02-05T22:22:06.671Z,101981.05
2019-02-05T22:24:36.003Z,101970.58
2019-02-05T22:27:05.691Z,101973.88
2019-02-05T22:29:35.287Z,101970.32
2019-02-05T22:32:04.624Z,101969.34
2019-02-05T22:34:39.264Z,101964.86
2019-02-05T22:37:05.119Z,101975.95
2019-02-05T22:39:34.890Z,101968.68
2019-02-05T22:42:04.514Z,101962.05
2019-02-05T22:44:33.786Z,101968.41
2019-02-05T22:47:03.028Z,101960.94
2019-02-05T22:49:32.258Z,101955.84
2019-02-05T22:52:01.547Z,101953.99
2019-02-05T22:54:30.933Z,101961.50
2019-02-05T22:57:00.118Z,101956.59
2019-02-05T22:59:29.666Z,101946.02
2019-02-05T23:02:02.818Z,101942.86
2019-02-05T23:05:13.127Z,101947.05
2019-02-05T23:07:42.474Z,101947.23
2019-02-05T23:10:32.826Z,101947.56
2019-02-05T23:13:05.549Z,101946.27
2019-02-05T23:15:35.074Z,101946.53
2019-02-05T23:18:05.224Z,101950.41
2019-02-05T23:20:34.530Z,101949.97
2019-02-05T23:23:03.978Z,101953.83
2019-02-05T23:25:33.191Z,101940.98
2019-02-05T23:28:02.671Z,101940.98
2019-02-05T23:30:32.110Z,101940.14
2019-02-05T23:33:01.590Z,101939.08
2019-02-05T23:35:32.752Z,101936.09
2019-02-05T23:38:02.257Z,101937.89
2019-02-05T23:40:31.956Z,101933.55
2019-02-05T23:43:01.242Z,101935.98
2019-02-05T23:45:30.657Z,101936.37
2019-02-05T23:47:59.902Z,101933.41
2019-02-05T23:50:29.230Z,101932.82
2019-02-05T23:52:58.666Z,101929.86
2019-02-05T23:55:28.092Z,101930.11
2019-02-05T23:57:57.349Z,101924.00
